Snoqualmie, WA (98065)

9:50 AM PDT on October 21, 2014 (GMT -0700)
Indian Hill | Change Station
CLOSE
Current Station
Personal Weather Station
Location: Snoqualmie, WA
Elevation: 817 ft
Nearby Weather Stations

Elev 817 ft 47.54 °N, 121.79 °W | Updated 44 seconds ago

Overcast
Overcast
52.1 °F
Feels Like 52.1 °F
N
0.0
Wind Variable Wind from SSE
Gusts 2.0 mph

Today
High -- | Low -- °F
--% Chance of Precip.
Yesterday
High -- | Low -- °F
Precip. -- in
7:34 AM 6:08 PM
Waning Crescent, 5% visible
Pressure 29.91 in
Visibility 10.0 miles
Clouds Few 4300 ft
Mostly Cloudy 9500 ft
Dew Point 52 °F
Humidity 99%
Rainfall 0.05 in
Snow Depth 0 in , 0 in , 0 in
UV 0.6 out of 12
Pollen .40 out of 12
PM2.5 Good
Flu Activity Sporadic
METAR KRNT 211553Z 13003KT 10SM FEW043 BKN095 13/11 A2990 RMK AO2 SLP129 T01280111

More Conditions Fewer Conditions

Pressure 29.91 in
Visibility 10.0 miles
Clouds Few 4300 ft
Mostly Cloudy 9500 ft
Dew Point 52 °F
Humidity 99%
Rainfall 0.05 in
Snow Depth 0 in , 0 in , 0 in
UV 0.6 out of 12
Pollen .40 out of 12
PM2.5 Good
Flu Activity Sporadic
METAR KRNT 211553Z 13003KT 10SM FEW043 BKN095 13/11 A2990 RMK AO2 SLP129 T01280111

More Conditions Fewer Conditions

10-Day Weather Forecast

Almanac

Astronomy

Oct. 21, 2014 Rise Set
Actual Time 7:34 AM PDT 6:08 PM PDT
Civil Twilight 7:03 AM PDT 6:39 PM PDT
Nautical Twilight 6:27 AM PDT 7:15 PM PDT
Astronomical Twilight 5:52 AM PDT 7:50 PM PDT
Moon 5:15 AM PDT 5:11 PM PDT
Length of Visible Light 11h 35m
Length of Day
10h 33m
Tomorrow will be 3m 16s shorter.
Waning Crescent, 5% of the Moon is Illuminated
Today
Waning Crescent
Oct 23
New
Oct 30
First Quarter
Nov 6
Full
Nov 14
Last Quarter

Today's Extremes

State Highs State Lows

Community

WunderPhotos

Upload Photos

1,763,712 photos uploaded!

Nearby

Air Quality

  Air Quality AQ Index Pollutant
Yesterday Good
PM2.5
Yesterday Good
OZONE
Current Good
PM2.5
Tuesday Good
PM2.5
Wednesday Good
PM2.5
Thursday Good
PM2.5
Friday Good
PM2.5
Saturday Good
PM2.5

Snow Depth

Station Depth Elevation
Skookum Creek 0 in 3920 ft
Mount Gardner 0 in 3000 ft
Alpine Meadows 0 in 3500 ft
Meadows Pass 0 in 3500 ft
Stampede Pass 0 in 3860 ft

Earthquake Activity

City Distance Mag. Time & Date
No recent earthquake activity has been reported nearby.
Minimum magnitude displayed is 2.5.

Coastal Water Temperatures

Place Temperature
Port Townsend, WA 52.0 °F
Seattle, WA 55.0 °F
Friday Harbor, WA 51.1 °F
Tacoma, WA 54.0 °F

Nearby Weather Stations